Dades meteomassalio
Diari Summary for Marc 14, 2017 Units:  Metric    English   Both
« Previous Day
Next Day »
Diari Semanal Mensual Anual Personalitzat
  Maxima: Minima: Mijana:
Temperatura: 18.8 °C 6.1 °C 11.8 °C
Rosada: 11.0 °C 4.9 °C 8.3 °C
Humitat: 93 % 55 % 81 %
Velocitat del vent: 18.5 km/h 0.0 km/h 4 km/h
Racha vent: 18.5 km/h - -
Vent:- - West
Pressio: 1032.1 hPa 1027.0 hPa -
Pluja: 0.3 mm    
Historical Graphs
 
 
Tabular Data for Marc 14, 2017
Time Temperature Dew Point Pressure Wind Wind Speed Wind Gust Humidity Rainfall Rate (Hourly) solar Conditions
00:00 11.0 °C 8.1 °C 1028.7 hPa Calm     82 % 0.0 mm 0.0 W/m2 CLR
00:05 10.9 °C 8.1 °C 1028.7 hPa Calm     83 % 0.0 mm 0.0 W/m2 RA
00:10 10.6 °C 7.8 °C 1028.7 hPa Calm     83 % 0.0 mm 0.0 W/m2 CLR
00:15 10.4 °C 7.8 °C 1028.7 hPa Calm     84 % 0.0 mm 0.0 W/m2 CLR
00:20 10.2 °C 7.8 °C 1028.7 hPa Calm     85 % 0.0 mm 0.0 W/m2 CLR
00:25 10.0 °C 7.8 °C 1028.7 hPa Calm     86 % 0.0 mm 0.0 W/m2 CLR
00:30 9.8 °C 7.6 °C 1028.7 hPa Calm     86 % 0.0 mm 0.0 W/m2 CLR
00:35 9.7 °C 7.6 °C 1028.7 hPa Calm     87 % 0.0 mm 0.0 W/m2 CLR
00:40 9.5 °C 7.4 °C 1028.7 hPa Calm     87 % 0.0 mm 0.0 W/m2 CLR
00:45 9.3 °C 7.3 °C 1028.7 hPa Calm     87 % 0.0 mm 0.0 W/m2 CLR
00:50 9.2 °C 7.3 °C 1028.7 hPa Calm     88 % 0.0 mm 0.0 W/m2 CLR
00:55 9.1 °C 7.2 °C 1028.7 hPa Calm     88 % 0.0 mm 0.0 W/m2 CLR
01:00 8.9 °C 7.2 °C 1028.7 hPa Calm     89 % 0.0 mm 0.0 W/m2 CLR
01:05 8.7 °C 7.0 °C 1028.7 hPa Calm     89 % 0.0 mm 0.0 W/m2 CLR
01:10 8.7 °C 7.1 °C 1028.7 hPa Calm     90 % 0.0 mm 0.0 W/m2 CLR
01:15 8.7 °C 7.1 °C 1028.7 hPa Calm     90 % 0.0 mm 0.0 W/m2 CLR
01:20 8.4 °C 6.7 °C 1029.0 hPa Calm     89 % 0.0 mm 0.0 W/m2 CLR
01:21 8.4 °C 6.9 °C 1029.0 hPa Calm     90 % 0.0 mm 0.0 W/m2 CLR
01:26 8.3 °C 6.7 °C 1029.0 hPa Calm     90 % 0.0 mm 0.0 W/m2 CLR
01:31 8.2 °C 6.7 °C 1029.0 hPa Calm     90 % 0.0 mm 0.0 W/m2 CLR
01:36 8.2 °C 6.8 °C 1029.0 hPa Calm     91 % 0.0 mm 0.0 W/m2 CLR
01:41 8.2 °C 6.8 °C 1029.0 hPa Calm     91 % 0.0 mm 0.0 W/m2 CLR
01:46 8.1 °C 6.7 °C 1029.0 hPa Calm     91 % 0.0 mm 0.0 W/m2 CLR
01:51 8.1 °C 6.7 °C 1028.7 hPa Calm     91 % 0.0 mm 0.0 W/m2 CLR
01:56 8.1 °C 6.7 °C 1028.7 hPa Calm     91 % 0.0 mm 0.0 W/m2 CLR
02:01 8.1 °C 6.7 °C 1028.7 hPa Calm     91 % 0.0 mm 0.0 W/m2 CLR
02:06 8.0 °C 6.6 °C 1028.3 hPa Calm     91 % 0.0 mm 0.0 W/m2 CLR
02:11 8.1 °C 6.8 °C 1028.3 hPa Calm     92 % 0.0 mm 0.0 W/m2 CLR
02:16 8.0 °C 6.8 °C 1028.3 hPa Calm     92 % 0.0 mm 0.0 W/m2 CLR
02:21 8.0 °C 6.8 °C 1028.3 hPa Calm     92 % 0.0 mm 0.0 W/m2 CLR
02:26 7.9 °C 6.5 °C 1028.3 hPa Calm     91 % 0.0 mm 0.0 W/m2 CLR
02:31 7.8 °C 6.4 °C 1028.7 hPa Calm     91 % 0.0 mm 0.0 W/m2 CLR
02:36 7.7 °C 6.5 °C 1028.3 hPa Calm     92 % 0.0 mm 0.0 W/m2 CLR
02:41 7.8 °C 6.6 °C 1028.7 hPa Calm     92 % 0.0 mm 0.0 W/m2 CLR
02:46 7.8 °C 6.6 °C 1028.7 hPa Calm     92 % 0.0 mm 0.0 W/m2 CLR
02:51 7.9 °C 6.7 °C 1028.7 hPa Calm     92 % 0.0 mm 0.0 W/m2 CLR
02:56 7.9 °C 6.7 °C 1028.7 hPa WSW 1.6 km/h 1.6 km/h 92 % 0.0 mm 0.0 W/m2 CLR
03:01 7.9 °C 6.7 °C 1029.0 hPa WSW 5.6 km/h 5.6 km/h 92 % 0.0 mm 0.0 W/m2 CLR
03:06 8.0 °C 6.8 °C 1029.0 hPa WSW 6.4 km/h 6.4 km/h 92 % 0.0 mm 0.0 W/m2 CLR
03:11 8.3 °C 7.2 °C 1029.0 hPa WSW 7.4 km/h 7.4 km/h 93 % 0.0 mm 0.0 W/m2 CLR
03:16 8.4 °C 7.2 °C 1029.0 hPa WSW 5.6 km/h 5.6 km/h 92 % 0.0 mm 0.0 W/m2 CLR
03:21 8.6 °C 7.6 °C 1029.0 hPa WSW 7.4 km/h 7.4 km/h 93 % 0.0 mm 0.0 W/m2 CLR
03:26 8.8 °C 7.6 °C 1029.0 hPa WSW 7.4 km/h 7.4 km/h 92 % 0.0 mm 0.0 W/m2 CLR
03:31 8.9 °C 7.7 °C 1029.0 hPa West 5.6 km/h 5.6 km/h 92 % 0.0 mm 0.0 W/m2 CLR
03:36 9.1 °C 7.9 °C 1029.0 hPa Calm     92 % 0.0 mm 0.0 W/m2 CLR
03:41 9.2 °C 8.0 °C 1029.0 hPa Calm     92 % 0.0 mm 0.0 W/m2 CLR
03:46 9.2 °C 7.8 °C 1028.7 hPa Calm     91 % 0.0 mm 0.0 W/m2 CLR
03:51 9.2 °C 7.8 °C 1028.7 hPa Calm     91 % 0.0 mm 0.0 W/m2 CLR
03:56 9.1 °C 7.7 °C 1028.7 hPa Calm     91 % 0.0 mm 0.0 W/m2 CLR
04:01 9.1 °C 7.7 °C 1028.7 hPa Calm     91 % 0.0 mm 0.0 W/m2 CLR
04:06 9.1 °C 7.7 °C 1028.7 hPa NW 6.4 km/h 6.4 km/h 91 % 0.0 mm 0.0 W/m2 CLR
04:11 9.2 °C 7.8 °C 1028.7 hPa WNW 5.6 km/h 5.6 km/h 91 % 0.0 mm 0.0 W/m2 CLR
04:16 9.2 °C 7.6 °C 1028.7 hPa WSW 5.6 km/h 5.6 km/h 90 % 0.0 mm 0.0 W/m2 CLR
04:21 9.2 °C 7.6 °C 1028.7 hPa Calm     90 % 0.0 mm 0.0 W/m2 CLR
04:26 9.1 °C 7.6 °C 1029.0 hPa WSW 7.4 km/h 7.4 km/h 90 % 0.0 mm 0.0 W/m2 CLR
04:31 9.1 °C 7.5 °C 1029.0 hPa WSW 3.7 km/h 3.7 km/h 90 % 0.0 mm 0.0 W/m2 CLR
04:36 9.0 °C 7.4 °C 1029.0 hPa Calm     90 % 0.0 mm 0.0 W/m2 CLR
04:42 8.9 °C 7.3 °C 1029.3 hPa Calm     90 % 0.0 mm 0.0 W/m2 CLR
04:47 8.9 °C 7.3 °C 1029.3 hPa Calm     90 % 0.0 mm 0.0 W/m2 CLR
04:52 8.8 °C 7.3 °C 1029.3 hPa Calm   0.3 km/h 90 % 0.0 mm 0.0 W/m2 CLR
04:57 8.8 °C 7.3 °C 1029.3 hPa Calm     90 % 0.0 mm 0.0 W/m2 CLR
05:02 8.8 °C 7.4 °C 1029.3 hPa Calm     91 % 0.0 mm 0.0 W/m2 CLR
05:07 8.8 °C 7.2 °C 1029.3 hPa Calm     90 % 0.0 mm 0.0 W/m2 CLR
05:12 8.7 °C 7.2 °C 1029.3 hPa Calm     90 % 0.0 mm 0.0 W/m2 CLR
05:17 8.7 °C 7.1 °C 1029.3 hPa Calm     90 % 0.0 mm 0.0 W/m2 CLR
05:22 8.6 °C 7.2 °C 1029.7 hPa Calm     91 % 0.0 mm 0.0 W/m2 CLR
05:27 8.5 °C 7.1 °C 1029.7 hPa WSW 6.4 km/h 6.4 km/h 91 % 0.0 mm 0.0 W/m2 CLR
05:32 8.4 °C 7.1 °C 1029.7 hPa Calm     91 % 0.0 mm 0.0 W/m2 CLR
05:37 8.4 °C 7.0 °C 1029.7 hPa Calm     91 % 0.0 mm 0.0 W/m2 CLR
05:42 8.4 °C 7.0 °C 1030.0 hPa Calm     91 % 0.0 mm 0.0 W/m2 CLR
05:47 8.4 °C 7.0 °C 1029.7 hPa Calm     91 % 0.0 mm 0.0 W/m2 CLR
05:52 8.3 °C 6.9 °C 1029.7 hPa Calm     91 % 0.0 mm 0.0 W/m2 CLR
05:57 8.2 °C 6.8 °C 1029.7 hPa Calm     91 % 0.0 mm 0.0 W/m2 CLR
06:02 8.2 °C 6.8 °C 1030.0 hPa Calm     91 % 0.0 mm 0.0 W/m2 CLR
06:07 7.9 °C 6.6 °C 1030.0 hPa Calm     91 % 0.0 mm 0.0 W/m2 CLR
06:12 7.8 °C 6.4 °C 1030.0 hPa Calm     91 % 0.0 mm 0.0 W/m2 CLR
06:17 7.6 °C 6.2 °C 1030.0 hPa Calm     91 % 0.0 mm 0.0 W/m2 CLR
06:22 7.3 °C 5.9 °C 1030.0 hPa Calm     91 % 0.0 mm 0.0 W/m2 CLR
06:27 7.3 °C 5.9 °C 1030.0 hPa Calm     91 % 0.0 mm 0.0 W/m2 CLR
06:32 7.1 °C 5.9 °C 1030.0 hPa Calm     92 % 0.0 mm 0.0 W/m2 CLR
06:37 7.2 °C 5.9 °C 1030.4 hPa Calm     92 % 0.0 mm 0.0 W/m2 CLR
06:42 7.2 °C 6.0 °C 1030.4 hPa Calm     92 % 0.0 mm 0.0 W/m2 CLR
06:47 7.2 °C 5.9 °C 1030.4 hPa Calm     92 % 0.0 mm 0.0 W/m2 CLR
06:52 7.0 °C 5.8 °C 1030.4 hPa Calm     92 % 0.0 mm 0.0 W/m2 CLR
06:57 6.8 °C 5.6 °C 1030.4 hPa Calm     92 % 0.0 mm 0.0 W/m2 CLR
07:02 6.7 °C 5.4 °C 1030.4 hPa Calm     92 % 0.0 mm 0.0 W/m2 OVC
07:07 6.6 °C 5.4 °C 1030.4 hPa Calm     92 % 0.0 mm 0.0 W/m2 OVC
07:12 6.5 °C 5.3 °C 1030.7 hPa Calm     92 % 0.0 mm 0.0 W/m2 OVC
07:17 6.4 °C 5.2 °C 1030.7 hPa Calm     92 % 0.0 mm 7.0 W/m2 OVC
07:22 6.3 °C 5.1 °C 1030.7 hPa Calm     92 % 0.0 mm 11.0 W/m2 BKN
07:27 6.3 °C 5.1 °C 1030.7 hPa Calm     92 % 0.0 mm 14.0 W/m2 BKN
07:32 6.2 °C 4.9 °C 1030.7 hPa Calm     92 % 0.0 mm 21.0 W/m2 BKN
07:37 6.2 °C 5.1 °C 1030.7 hPa Calm     93 % 0.0 mm 26.0 W/m2 BKN
07:42 6.1 °C 5.1 °C 1030.7 hPa Calm     93 % 0.0 mm 33.0 W/m2 BKN
07:47 6.2 °C 5.1 °C 1031.0 hPa WSW 5.6 km/h 5.6 km/h 93 % 0.0 mm 42.0 W/m2 BKN
07:52 6.5 °C 5.4 °C 1030.7 hPa West 1.9 km/h   93 % 0.0 mm 51.0 W/m2 SCT
07:57 6.8 °C 5.8 °C 1030.7 hPa Calm     93 % 0.0 mm 58.0 W/m2 SCT
08:02 6.8 °C 5.8 °C 1030.7 hPa Calm     93 % 0.0 mm 67.0 W/m2 FEW
08:07 6.7 °C 5.7 °C 1031.0 hPa Calm     93 % 0.0 mm 81.0 W/m2 FEW
08:12 6.9 °C 5.8 °C 1031.0 hPa Calm     93 % 0.0 mm 90.0 W/m2 CLR
08:17 7.1 °C 6.0 °C 1031.0 hPa Calm     93 % 0.3 mm 105.0 W/m2 RA
08:22 7.1 °C 6.1 °C 1031.0 hPa SW 5.6 km/h 5.6 km/h 93 % 0.3 mm 84.0 W/m2 CLR
08:27 7.3 °C 6.2 °C 1031.4 hPa Calm     93 % 0.3 mm 114.0 W/m2 CLR
08:32 7.5 °C 6.4 °C 1031.4 hPa Calm     93 % 0.3 mm 155.0 W/m2 CLR
08:33 7.5 °C 6.4 °C 1031.4 hPa Calm     93 % 0.3 mm 151.0 W/m2 CLR
08:38 7.8 °C 6.7 °C 1031.4 hPa Calm     93 % 0.3 mm 102.0 W/m2 CLR
08:43 7.9 °C 6.9 °C 1031.4 hPa Calm     93 % 0.3 mm 109.0 W/m2 CLR
08:48 7.9 °C 6.9 °C 1031.7 hPa NW 1.6 km/h   93 % 0.3 mm 111.0 W/m2 CLR
08:53 8.2 °C 7.2 °C 1031.4 hPa WNW 9.3 km/h 9.3 km/h 93 % 0.3 mm 195.0 W/m2 CLR
08:58 8.6 °C 7.6 °C 1031.7 hPa Calm     93 % 0.3 mm 207.0 W/m2 CLR
09:03 8.9 °C 7.7 °C 1031.4 hPa NW 5.6 km/h 5.6 km/h 92 % 0.3 mm 206.0 W/m2 CLR
09:08 9.2 °C 8.0 °C 1031.4 hPa WNW 8.0 km/h 8.0 km/h 92 % 0.3 mm 283.0 W/m2 CLR
09:13 9.5 °C 7.9 °C 1031.4 hPa NW 14.8 km/h 14.8 km/h 90 % 0.3 mm 294.0 W/m2 CLR
09:18 9.7 °C 8.0 °C 1031.7 hPa WNW 9.3 km/h 9.3 km/h 89 % 0.0 mm 179.0 W/m2 CLR
09:23 9.7 °C 7.8 °C 1031.7 hPa NW 13.0 km/h 13.0 km/h 88 % 0.0 mm 178.0 W/m2 CLR
09:28 9.8 °C 7.9 °C 1031.7 hPa NW 6.4 km/h 6.4 km/h 88 % 0.0 mm 144.0 W/m2 CLR
09:33 9.8 °C 7.9 °C 1032.1 hPa NW 18.5 km/h 18.5 km/h 88 % 0.0 mm 135.0 W/m2 CLR
09:38 9.8 °C 7.7 °C 1031.7 hPa NNW 11.1 km/h 11.1 km/h 87 % 0.0 mm 116.0 W/m2 CLR
09:43 9.8 °C 7.8 °C 1032.1 hPa WNW 5.6 km/h 5.6 km/h 87 % 0.0 mm 151.0 W/m2 CLR
09:48 9.9 °C 7.8 °C 1032.1 hPa NW 16.7 km/h 16.7 km/h 87 % 0.0 mm 141.0 W/m2 CLR
09:53 9.9 °C 7.8 °C 1032.1 hPa NW 11.3 km/h 11.3 km/h 87 % 0.0 mm 207.0 W/m2 CLR
09:58 10.0 °C 7.9 °C 1032.1 hPa NNW 9.7 km/h 9.7 km/h 87 % 0.0 mm 230.0 W/m2 CLR
10:03 10.1 °C 7.9 °C 1032.1 hPa WNW 13.0 km/h 13.0 km/h 86 % 0.0 mm 250.0 W/m2 CLR
10:08 10.2 °C 8.0 °C 1032.1 hPa WNW 11.1 km/h 11.1 km/h 86 % 0.0 mm 202.0 W/m2 CLR
10:13 10.2 °C 8.0 °C 1032.1 hPa NW 13.0 km/h 13.0 km/h 86 % 0.0 mm 195.0 W/m2 CLR
10:18 10.3 °C 8.1 °C 1032.1 hPa WNW 11.1 km/h 11.1 km/h 86 % 0.0 mm 269.0 W/m2 CLR
10:23 10.4 °C 8.2 °C 1032.1 hPa NNW 13.0 km/h 13.0 km/h 86 % 0.0 mm 306.0 W/m2 CLR
10:28 10.7 °C 8.4 °C 1032.1 hPa WNW 11.3 km/h 11.3 km/h 86 % 0.0 mm 285.0 W/m2 CLR
10:33 10.7 °C 8.3 °C 1032.1 hPa WNW 14.5 km/h 14.5 km/h 85 % 0.0 mm 494.0 W/m2 CLR
10:38 10.9 °C 8.5 °C 1032.1 hPa West 14.5 km/h 14.5 km/h 85 % 0.0 mm 397.0 W/m2 CLR
10:43 11.0 °C 8.4 °C 1032.1 hPa WNW 11.1 km/h 11.1 km/h 84 % 0.0 mm 302.0 W/m2 CLR
10:48 11.2 °C 8.6 °C 1031.7 hPa NW 9.3 km/h 9.3 km/h 84 % 0.0 mm 552.0 W/m2 CLR
10:53 11.3 °C 8.6 °C 1031.7 hPa West 13.0 km/h 13.0 km/h 83 % 0.0 mm 311.0 W/m2 CLR
10:58 11.3 °C 8.7 °C 1031.7 hPa WNW 12.9 km/h 12.9 km/h 84 % 0.0 mm 599.0 W/m2 CLR
11:03 11.6 °C 8.8 °C 1031.7 hPa WSW 13.0 km/h 13.0 km/h 83 % 0.0 mm 568.0 W/m2 CLR
11:08 11.8 °C 8.8 °C 1031.7 hPa WSW 14.8 km/h 14.8 km/h 82 % 0.0 mm 589.0 W/m2 CLR
11:13 12.0 °C 9.2 °C 1031.4 hPa West 14.8 km/h 14.8 km/h 83 % 0.0 mm 599.0 W/m2 CLR
11:18 12.3 °C 9.1 °C 1031.4 hPa West 9.3 km/h 9.3 km/h 81 % 0.0 mm 612.0 W/m2 CLR
11:23 12.6 °C 9.6 °C 1031.0 hPa WSW 9.3 km/h 9.3 km/h 82 % 0.0 mm 605.0 W/m2 CLR
11:28 12.7 °C 9.3 °C 1031.0 hPa WSW 11.1 km/h 11.1 km/h 80 % 0.0 mm 631.0 W/m2 CLR
11:33 12.7 °C 9.6 °C 1031.0 hPa SSW 7.4 km/h 7.4 km/h 81 % 0.0 mm 626.0 W/m2 CLR
11:38 13.1 °C 9.7 °C 1031.0 hPa Calm   0.2 km/h 80 % 0.0 mm 638.0 W/m2 CLR
11:43 13.3 °C 9.8 °C 1031.4 hPa West 7.4 km/h 7.4 km/h 79 % 0.0 mm 647.0 W/m2 CLR
11:48 13.7 °C 10.1 °C 1031.0 hPa SW 9.3 km/h 9.3 km/h 79 % 0.0 mm 656.0 W/m2 CLR
11:53 13.8 °C 10.1 °C 1031.0 hPa WNW 11.1 km/h 11.1 km/h 78 % 0.0 mm 673.0 W/m2 CLR
11:58 13.8 °C 10.1 °C 1031.0 hPa SW 9.3 km/h 9.3 km/h 78 % 0.0 mm 693.0 W/m2 CLR
12:03 14.2 °C 10.4 °C 1031.0 hPa WSW 5.6 km/h 5.6 km/h 78 % 0.0 mm 679.0 W/m2 CLR
12:08 14.2 °C 10.1 °C 1031.0 hPa WSW 9.3 km/h 9.3 km/h 76 % 0.0 mm 679.0 W/m2 CLR
12:13 14.2 °C 9.8 °C 1030.7 hPa SW 18.5 km/h 18.5 km/h 75 % 0.0 mm 689.0 W/m2 CLR
12:18 14.3 °C 10.3 °C 1030.7 hPa WSW 14.8 km/h 14.8 km/h 77 % 0.0 mm 682.0 W/m2 CLR
12:23 14.3 °C 10.2 °C 1030.7 hPa WSW 13.0 km/h 13.0 km/h 76 % 0.0 mm 705.0 W/m2 CLR
12:28 14.4 °C 10.0 °C 1030.7 hPa WSW 7.4 km/h 7.4 km/h 75 % 0.0 mm 701.0 W/m2 CLR
12:33 14.7 °C 10.3 °C 1030.7 hPa SW 9.3 km/h 9.3 km/h 75 % 0.0 mm 708.0 W/m2 CLR
12:38 14.9 °C 10.1 °C 1030.7 hPa SW 13.0 km/h 13.0 km/h 73 % 0.0 mm 744.0 W/m2 CLR
12:43 15.1 °C 10.4 °C 1030.7 hPa WNW 11.3 km/h 11.3 km/h 74 % 0.0 mm 650.0 W/m2 CLR
12:48 15.0 °C 10.2 °C 1030.4 hPa WSW 16.7 km/h 16.7 km/h 73 % 0.0 mm 754.0 W/m2 CLR
12:53 14.9 °C 9.9 °C 1030.4 hPa West 14.8 km/h 14.8 km/h 72 % 0.0 mm 459.0 W/m2 CLR
12:58 15.0 °C 10.4 °C 1030.4 hPa SW 13.0 km/h 13.0 km/h 74 % 0.0 mm 731.0 W/m2 CLR
13:03 15.2 °C 10.2 °C 1030.4 hPa WNW 11.1 km/h 11.1 km/h 72 % 0.0 mm 726.0 W/m2 CLR
13:08 15.4 °C 10.2 °C 1030.4 hPa West 11.3 km/h 11.3 km/h 71 % 0.0 mm 786.0 W/m2 CLR
13:13 15.6 °C 10.3 °C 1030.0 hPa SW 7.4 km/h 7.4 km/h 71 % 0.0 mm 740.0 W/m2 CLR
13:18 15.7 °C 10.0 °C 1030.0 hPa WSW 11.1 km/h 11.1 km/h 69 % 0.0 mm 751.0 W/m2 CLR
13:23 15.9 °C 10.6 °C 1030.0 hPa WNW 1.9 km/h   71 % 0.0 mm 821.0 W/m2 CLR
13:28 16.1 °C 10.6 °C 1030.0 hPa NNW 11.1 km/h 11.1 km/h 70 % 0.0 mm 824.0 W/m2 CLR
13:33 16.3 °C 11.0 °C 1030.0 hPa WSW 5.6 km/h   71 % 0.0 mm 828.0 W/m2 CLR
13:38 16.5 °C 10.8 °C 1029.7 hPa NW 13.0 km/h 13.0 km/h 69 % 0.0 mm 775.0 W/m2 CLR
13:43 16.1 °C 10.2 °C 1029.7 hPa NNW 5.6 km/h 5.6 km/h 68 % 0.0 mm 330.0 W/m2 CLR
13:48 16.1 °C 10.6 °C 1029.7 hPa West 13.0 km/h 13.0 km/h 70 % 0.0 mm 784.0 W/m2 CLR
13:53 15.9 °C 10.1 °C 1029.3 hPa West 11.3 km/h 11.3 km/h 68 % 0.0 mm 190.0 W/m2 CLR
13:58 15.8 °C 9.7 °C 1029.7 hPa SW 5.6 km/h 5.6 km/h 67 % 0.0 mm 260.0 W/m2 CLR
14:03 16.3 °C 10.2 °C 1029.3 hPa SW 5.6 km/h   67 % 0.0 mm 773.0 W/m2 CLR
14:08 16.7 °C 10.5 °C 1029.3 hPa WNW 9.7 km/h 9.7 km/h 67 % 0.0 mm 288.0 W/m2 CLR
14:13 16.6 °C 10.2 °C 1029.3 hPa SW 11.3 km/h 11.3 km/h 66 % 0.0 mm 788.0 W/m2 CLR
14:18 16.8 °C 10.9 °C 1029.0 hPa WNW 13.0 km/h 13.0 km/h 68 % 0.0 mm 749.0 W/m2 CLR
14:23 16.4 °C 10.7 °C 1029.0 hPa WNW 13.0 km/h 13.0 km/h 69 % 0.0 mm 264.0 W/m2 CLR
14:28 16.3 °C 10.6 °C 1029.0 hPa WNW 11.3 km/h 11.3 km/h 69 % 0.0 mm 677.0 W/m2 CLR
14:33 16.6 °C 10.6 °C 1028.7 hPa NW 13.0 km/h 13.0 km/h 68 % 0.0 mm 659.0 W/m2 CLR
14:38 16.7 °C 10.3 °C 1028.7 hPa NNW 14.8 km/h 14.8 km/h 66 % 0.0 mm 638.0 W/m2 CLR
14:43 16.8 °C 9.9 °C 1028.7 hPa West 14.8 km/h 14.8 km/h 64 % 0.0 mm 650.0 W/m2 CLR
14:48 16.8 °C 9.9 °C 1028.7 hPa WNW 4.8 km/h 4.8 km/h 64 % 0.0 mm 626.0 W/m2 CLR
14:53 17.0 °C 10.1 °C 1028.7 hPa West 11.1 km/h 11.1 km/h 64 % 0.0 mm 628.0 W/m2 CLR
14:58 17.2 °C 10.6 °C 1028.7 hPa WNW 3.7 km/h   65 % 0.0 mm 615.0 W/m2 CLR
15:03 17.6 °C 10.4 °C 1028.3 hPa WSW 6.4 km/h 6.4 km/h 63 % 0.0 mm 621.0 W/m2 CLR
15:08 17.8 °C 10.2 °C 1028.3 hPa SW 8.0 km/h 8.0 km/h 61 % 0.0 mm 601.0 W/m2 CLR
15:13 17.7 °C 9.8 °C 1028.3 hPa West 7.4 km/h 7.4 km/h 60 % 0.0 mm 596.0 W/m2 CLR
15:18 17.8 °C 9.9 °C 1028.3 hPa WSW 7.4 km/h 7.4 km/h 60 % 0.0 mm 589.0 W/m2 CLR
15:19 17.8 °C 9.9 °C 1028.3 hPa WSW 7.4 km/h 7.4 km/h 60 % 0.0 mm 589.0 W/m2 CLR
15:24 17.8 °C 9.9 °C 1028.0 hPa West 9.7 km/h 11.4 km/h 60 % 0.0 mm 573.0 W/m2 CLR
15:29 17.7 °C 9.6 °C 1028.0 hPa West 11.1 km/h 11.1 km/h 59 % 0.0 mm 568.0 W/m2 CLR
15:34 17.7 °C 10.6 °C 1028.0 hPa NNW 11.1 km/h 11.1 km/h 63 % 0.0 mm 554.0 W/m2 CLR
15:39 17.9 °C 9.8 °C 1028.0 hPa NW 13.0 km/h 13.0 km/h 59 % 0.0 mm 545.0 W/m2 CLR
15:44 17.9 °C 9.8 °C 1028.0 hPa West 14.8 km/h 14.8 km/h 59 % 0.0 mm 533.0 W/m2 CLR
15:49 18.1 °C 9.9 °C 1028.0 hPa WSW 5.6 km/h 5.6 km/h 59 % 0.0 mm 522.0 W/m2 CLR
15:54 18.2 °C 9.2 °C 1027.7 hPa West 11.1 km/h 11.1 km/h 56 % 0.0 mm 504.0 W/m2 CLR
15:59 18.1 °C 9.7 °C 1027.7 hPa West 9.3 km/h 9.3 km/h 58 % 0.0 mm 494.0 W/m2 CLR
16:04 18.3 °C 9.9 °C 1027.7 hPa SW 7.4 km/h 7.4 km/h 58 % 0.0 mm 480.0 W/m2 CLR
16:09 18.3 °C 10.2 °C 1027.7 hPa NW 9.7 km/h 9.7 km/h 59 % 0.0 mm 454.0 W/m2 CLR
16:14 18.3 °C 10.1 °C 1027.7 hPa NW 4.8 km/h 4.8 km/h 59 % 0.0 mm 461.0 W/m2 CLR
16:19 18.4 °C 10.2 °C 1027.7 hPa WNW 9.3 km/h 9.3 km/h 59 % 0.0 mm 443.0 W/m2 CLR
16:24 18.3 °C 10.7 °C 1027.7 hPa NW 13.0 km/h 13.0 km/h 61 % 0.0 mm 427.0 W/m2 CLR
16:29 18.2 °C 9.6 °C 1027.7 hPa Calm     57 % 0.0 mm 420.0 W/m2 CLR
16:34 18.3 °C 10.7 °C 1027.3 hPa NNW 14.5 km/h 14.5 km/h 61 % 0.0 mm 406.0 W/m2 CLR
16:39 18.3 °C 10.9 °C 1027.3 hPa NW 9.3 km/h 9.3 km/h 62 % 0.0 mm 387.0 W/m2 CLR
16:44 18.4 °C 10.3 °C 1027.3 hPa Calm     59 % 0.0 mm 374.0 W/m2 CLR
16:49 18.7 °C 10.5 °C 1027.3 hPa West 9.3 km/h 9.3 km/h 59 % 0.0 mm 364.0 W/m2 CLR
16:54 18.7 °C 10.7 °C 1027.3 hPa NW 6.4 km/h 6.4 km/h 60 % 0.0 mm 348.0 W/m2 CLR
16:59 18.7 °C 10.5 °C 1027.3 hPa WNW 9.3 km/h 9.3 km/h 59 % 0.0 mm 332.0 W/m2 CLR
17:04 18.5 °C 10.1 °C 1027.3 hPa Calm     58 % 0.0 mm 313.0 W/m2 CLR
17:09 18.6 °C 10.2 °C 1027.3 hPa West 7.4 km/h 7.4 km/h 58 % 0.0 mm 304.0 W/m2 CLR
17:14 18.6 °C 9.9 °C 1027.3 hPa WNW 11.3 km/h 11.3 km/h 57 % 0.0 mm 290.0 W/m2 CLR
17:19 18.4 °C 9.8 °C 1027.3 hPa West 8.0 km/h 8.0 km/h 57 % 0.0 mm 271.0 W/m2 CLR
17:24 18.3 °C 9.1 °C 1027.3 hPa Calm     55 % 0.0 mm 257.0 W/m2 CLR
17:29 18.5 °C 10.3 °C 1027.3 hPa NW 5.6 km/h 5.6 km/h 59 % 0.0 mm 239.0 W/m2 CLR
17:34 18.4 °C 10.0 °C 1027.3 hPa Calm     58 % 0.0 mm 227.0 W/m2 CLR
17:39 18.5 °C 9.8 °C 1027.3 hPa Calm     57 % 0.0 mm 202.0 W/m2 CLR
17:44 18.6 °C 9.6 °C 1027.0 hPa Calm     56 % 0.0 mm 185.0 W/m2 CLR
17:49 18.7 °C 9.4 °C 1027.3 hPa Calm     55 % 0.0 mm 169.0 W/m2 CLR
17:54 18.8 °C 10.1 °C 1027.0 hPa Calm     57 % 0.0 mm 149.0 W/m2 CLR
17:59 18.7 °C 10.3 °C 1027.0 hPa Calm     58 % 0.0 mm 132.0 W/m2 CLR
18:04 18.7 °C 10.2 °C 1027.0 hPa WNW 1.9 km/h 1.9 km/h 58 % 0.0 mm 116.0 W/m2 CLR
18:09 18.6 °C 9.9 °C 1027.0 hPa Calm     57 % 0.0 mm 100.0 W/m2 CLR
18:14 18.4 °C 10.6 °C 1027.0 hPa Calm     60 % 0.0 mm 86.0 W/m2 CLR
18:19 18.3 °C 10.4 °C 1027.0 hPa Calm     60 % 0.0 mm 62.0 W/m2 FEW
18:24 18.1 °C 9.9 °C 1027.0 hPa Calm     59 % 0.0 mm 53.0 W/m2 SCT
18:29 18.1 °C 9.4 °C 1027.0 hPa Calm     57 % 0.0 mm 46.0 W/m2 SCT
18:34 17.9 °C 9.8 °C 1027.3 hPa Calm     59 % 0.0 mm 35.0 W/m2 BKN
18:39 17.8 °C 9.9 °C 1027.3 hPa Calm     60 % 0.0 mm 26.0 W/m2 BKN
18:44 17.7 °C 10.1 °C 1027.3 hPa Calm     61 % 0.0 mm 18.0 W/m2 BKN
18:49 17.2 °C 9.9 °C 1027.3 hPa Calm     62 % 0.0 mm 14.0 W/m2 BKN
18:54 16.7 °C 9.9 °C 1027.3 hPa Calm     64 % 0.0 mm 9.0 W/m2 BKN
18:59 16.3 °C 9.7 °C 1027.3 hPa Calm     65 % 0.0 mm 5.0 W/m2 OVC
19:04 15.9 °C 9.8 °C 1027.3 hPa Calm     67 % 0.0 mm 0.0 W/m2 OVC
19:09 15.7 °C 9.6 °C 1027.3 hPa Calm     67 % 0.0 mm 0.0 W/m2 OVC
19:14 15.5 °C 9.6 °C 1027.7 hPa Calm     68 % 0.0 mm 0.0 W/m2 OVC
19:19 15.4 °C 9.5 °C 1027.7 hPa Calm     68 % 0.0 mm 0.0 W/m2 CLR
19:24 15.2 °C 9.8 °C 1027.7 hPa Calm     70 % 0.0 mm 0.0 W/m2 CLR
19:29 14.9 °C 9.7 °C 1027.7 hPa Calm     71 % 0.0 mm 0.0 W/m2 CLR
19:34 14.7 °C 9.9 °C 1027.7 hPa Calm     73 % 0.0 mm 0.0 W/m2 CLR
19:39 14.3 °C 9.8 °C 1027.7 hPa Calm     74 % 0.0 mm 0.0 W/m2 CLR
19:44 14.1 °C 9.7 °C 1027.7 hPa Calm     75 % 0.0 mm 0.0 W/m2 CLR
19:49 13.9 °C 9.7 °C 1028.0 hPa Calm     76 % 0.0 mm 0.0 W/m2 CLR
19:54 13.6 °C 9.8 °C 1028.0 hPa Calm     78 % 0.0 mm 0.0 W/m2 CLR
19:59 13.3 °C 9.7 °C 1028.0 hPa Calm     79 % 0.0 mm 0.0 W/m2 CLR
20:04 12.9 °C 9.6 °C 1028.0 hPa Calm     80 % 0.0 mm 0.0 W/m2 CLR
20:09 12.7 °C 9.5 °C 1028.0 hPa Calm     81 % 0.0 mm 0.0 W/m2 CLR
20:14 12.3 °C 9.3 °C 1028.0 hPa Calm     82 % 0.0 mm 0.0 W/m2 CLR
20:19 12.0 °C 9.2 °C 1028.0 hPa Calm     83 % 0.0 mm 0.0 W/m2 CLR
20:24 11.8 °C 9.2 °C 1028.3 hPa Calm     84 % 0.0 mm 0.0 W/m2 CLR
20:29 11.7 °C 9.1 °C 1028.3 hPa Calm     84 % 0.0 mm 0.0 W/m2 CLR
20:34 11.6 °C 9.1 °C 1028.3 hPa Calm     85 % 0.0 mm 0.0 W/m2 CLR
20:39 11.4 °C 8.9 °C 1028.3 hPa Calm     85 % 0.0 mm 0.0 W/m2 CLR
20:44 11.2 °C 8.8 °C 1028.3 hPa Calm     85 % 0.0 mm 0.0 W/m2 CLR
20:49 11.1 °C 8.8 °C 1028.3 hPa Calm     86 % 0.0 mm 0.0 W/m2 CLR
20:54 10.8 °C 8.6 °C 1028.3 hPa Calm     86 % 0.0 mm 0.0 W/m2 CLR
21:00 10.7 °C 8.6 °C 1028.3 hPa Calm     87 % 0.0 mm 0.0 W/m2 CLR
21:05 10.5 °C 8.4 °C 1028.7 hPa Calm     87 % 0.0 mm 0.0 W/m2 CLR
21:10 10.3 °C 8.3 °C 1028.7 hPa Calm     87 % 0.0 mm 0.0 W/m2 CLR
21:15 10.3 °C 8.4 °C 1028.7 hPa Calm     88 % 0.0 mm 0.0 W/m2 CLR
21:20 10.2 °C 8.3 °C 1028.7 hPa Calm     88 % 0.0 mm 0.0 W/m2 CLR
21:25 10.1 °C 8.2 °C 1028.7 hPa Calm     88 % 0.0 mm 0.0 W/m2 CLR
21:30 9.9 °C 8.1 °C 1029.0 hPa Calm     88 % 0.0 mm 0.0 W/m2 CLR
21:35 9.8 °C 8.1 °C 1029.0 hPa Calm     89 % 0.0 mm 0.0 W/m2 CLR
21:40 9.7 °C 8.0 °C 1029.0 hPa Calm     89 % 0.0 mm 0.0 W/m2 CLR
21:45 9.6 °C 7.9 °C 1029.0 hPa Calm     89 % 0.0 mm 0.0 W/m2 CLR
21:50 9.6 °C 7.8 °C 1029.0 hPa Calm     89 % 0.0 mm 0.0 W/m2 CLR
21:55 9.4 °C 7.7 °C 1029.0 hPa Calm     89 % 0.0 mm 0.0 W/m2 CLR
22:00 9.3 °C 7.8 °C 1029.0 hPa Calm     90 % 0.0 mm 0.0 W/m2 CLR
22:05 9.3 °C 7.8 °C 1029.0 hPa Calm     90 % 0.0 mm 0.0 W/m2 CLR
22:10 9.2 °C 7.7 °C 1029.0 hPa Calm     90 % 0.0 mm 0.0 W/m2 CLR
22:15 9.1 °C 7.6 °C 1029.0 hPa Calm     90 % 0.0 mm 0.0 W/m2 CLR
22:20 9.1 °C 7.6 °C 1029.3 hPa Calm     90 % 0.0 mm 0.0 W/m2 CLR
22:25 9.2 °C 7.8 °C 1029.3 hPa Calm     91 % 0.0 mm 0.0 W/m2 CLR
22:30 9.3 °C 7.9 °C 1029.3 hPa Calm     91 % 0.0 mm 0.0 W/m2 CLR
22:35 9.3 °C 7.9 °C 1029.3 hPa Calm     91 % 0.0 mm 0.0 W/m2 CLR
22:40 9.5 °C 8.1 °C 1029.3 hPa Calm     91 % 0.0 mm 0.0 W/m2 CLR
22:45 9.6 °C 8.2 °C 1029.3 hPa Calm     91 % 0.0 mm 0.0 W/m2 CLR
22:50 9.7 °C 8.3 °C 1029.3 hPa Calm     91 % 0.0 mm 0.0 W/m2 CLR
22:55 9.7 °C 8.2 °C 1029.7 hPa Calm     90 % 0.0 mm 0.0 W/m2 CLR
23:00 9.6 °C 7.9 °C 1029.7 hPa Calm     89 % 0.0 mm 0.0 W/m2 CLR
23:05 9.4 °C 7.7 °C 1029.3 hPa Calm     89 % 0.0 mm 0.0 W/m2 CLR
23:10 9.3 °C 7.6 °C 1029.3 hPa Calm     89 % 0.0 mm 0.0 W/m2 CLR
23:15 9.3 °C 7.8 °C 1029.3 hPa Calm     90 % 0.0 mm 0.0 W/m2 CLR
23:20 9.4 °C 7.9 °C 1029.3 hPa Calm     90 % 0.0 mm 0.0 W/m2 CLR
23:25 9.6 °C 8.0 °C 1029.7 hPa Calm     90 % 0.0 mm 0.0 W/m2 CLR
23:30 9.7 °C 8.2 °C 1029.7 hPa Calm     90 % 0.0 mm 0.0 W/m2 CLR
23:35 9.9 °C 8.2 °C 1029.7 hPa Calm     89 % 0.0 mm 0.0 W/m2 CLR
23:40 10.2 °C 8.5 °C 1029.7 hPa Calm     89 % 0.0 mm 0.0 W/m2 CLR
23:45 10.3 °C 8.4 °C 1029.7 hPa WSW 1.9 km/h   88 % 0.0 mm 0.0 W/m2 CLR
23:50 10.3 °C 8.2 °C 1029.7 hPa SW 3.7 km/h   87 % 0.0 mm 0.0 W/m2 CLR
23:55 9.9 °C 7.9 °C 1029.7 hPa WSW 9.3 km/h 9.3 km/h 87 % 0.0 mm 0.0 W/m2 CLR
Lo Temps de Massalio
Compliments of Weather Underground - 1.25 mb